JAL8001 RJOO-RJFF
Flight info
| Callsign | JAL8001 |
|---|---|
| Flight time | N/A |
| Altitude | 40000 |
| Route | TIGER SUMAR AYAME SETOH SOUJA Y281 STOUT Y20 KIRIN |
| Aircraft | A359/H-SDE2E3GHIJ3J4J5LM1ORWXY/LB1D1 |
Departure
| Time | N/A |
|---|---|
| Airport | Osaka Itami International Airport (RJOO) |
Arrival
| Time | 2026-04-28 09:11 |
|---|---|
| Airport | Fukuoka Airport (RJFF) |
| Time | Latitude | Longitude | Altitude | Speed | Heading |
|---|---|---|---|---|---|
| 2026-04-28 08:40 | 34.57371 | 133.39377 | 40213 ft | 366 kts | 261° |
| 2026-04-28 08:40 | 34.56890 | 133.36326 | 39970 ft | 373 kts | 261° |
| 2026-04-28 08:41 | 34.55895 | 133.29973 | 39907 ft | 391 kts | 261° |
| 2026-04-28 08:41 | 34.54855 | 133.23369 | 39937 ft | 404 kts | 261° |
| 2026-04-28 08:42 | 34.53660 | 133.15849 | 39936 ft | 403 kts | 261° |
| 2026-04-28 08:42 | 34.49418 | 132.89355 | 39937 ft | 402 kts | 261° |
| 2026-04-28 08:43 | 34.45109 | 132.62772 | 39938 ft | 403 kts | 261° |
| 2026-04-28 08:43 | 34.41752 | 132.42386 | 39416 ft | 403 kts | 261° |
| 2026-04-28 08:43 | 34.41202 | 132.39057 | 39184 ft | 403 kts | 261° |
| 2026-04-28 08:44 | 34.40650 | 132.35723 | 38955 ft | 403 kts | 261° |
| 2026-04-28 08:44 | 34.40113 | 132.32399 | 38707 ft | 404 kts | 261° |
| 2026-04-28 08:44 | 34.39590 | 132.29050 | 38461 ft | 405 kts | 261° |
| 2026-04-28 08:44 | 34.39074 | 132.25698 | 38178 ft | 405 kts | 261° |
| 2026-04-28 08:45 | 34.38559 | 132.22344 | 37897 ft | 406 kts | 261° |
| 2026-04-28 08:45 | 34.38040 | 132.18979 | 37413 ft | 407 kts | 261° |
| 2026-04-28 08:45 | 34.37521 | 132.15652 | 36782 ft | 407 kts | 261° |
| 2026-04-28 08:45 | 34.36996 | 132.12294 | 36144 ft | 407 kts | 261° |
| 2026-04-28 08:46 | 34.36462 | 132.08886 | 35533 ft | 408 kts | 260° |
| 2026-04-28 08:46 | 34.35929 | 132.05501 | 34928 ft | 409 kts | 260° |
| 2026-04-28 08:46 | 34.35396 | 132.02112 | 34339 ft | 411 kts | 260° |
| 2026-04-28 08:46 | 34.34863 | 131.98747 | 33712 ft | 414 kts | 260° |
| 2026-04-28 08:47 | 34.34319 | 131.95298 | 33080 ft | 417 kts | 260° |
| 2026-04-28 08:47 | 34.33772 | 131.91854 | 32446 ft | 418 kts | 260° |
| 2026-04-28 08:47 | 34.33219 | 131.88389 | 31818 ft | 419 kts | 260° |
| 2026-04-28 08:47 | 34.32668 | 131.84918 | 31169 ft | 420 kts | 260° |
| 2026-04-28 08:48 | 34.32113 | 131.81431 | 30534 ft | 421 kts | 260° |
| 2026-04-28 08:48 | 34.31552 | 131.77952 | 29880 ft | 422 kts | 260° |
| 2026-04-28 08:48 | 34.30990 | 131.74452 | 29171 ft | 421 kts | 260° |
| 2026-04-28 08:48 | 34.30442 | 131.71029 | 28473 ft | 419 kts | 260° |
| 2026-04-28 08:49 | 34.29889 | 131.67587 | 27742 ft | 414 kts | 260° |
| 2026-04-28 08:49 | 34.29333 | 131.64182 | 27065 ft | 411 kts | 260° |
| 2026-04-28 08:49 | 34.28784 | 131.60797 | 26406 ft | 408 kts | 260° |
| 2026-04-28 08:49 | 34.28247 | 131.57432 | 25766 ft | 405 kts | 260° |
| 2026-04-28 08:50 | 34.27710 | 131.54099 | 25156 ft | 401 kts | 259° |
| 2026-04-28 08:50 | 34.27174 | 131.50802 | 24534 ft | 397 kts | 259° |
| 2026-04-28 08:50 | 34.26641 | 131.47539 | 23929 ft | 394 kts | 259° |
| 2026-04-28 08:50 | 34.26111 | 131.44297 | 23288 ft | 391 kts | 259° |
| 2026-04-28 08:51 | 34.25593 | 131.41128 | 22587 ft | 389 kts | 259° |
| 2026-04-28 08:51 | 34.25070 | 131.37930 | 21894 ft | 386 kts | 259° |
| 2026-04-28 08:51 | 34.24550 | 131.34761 | 21230 ft | 382 kts | 259° |
| 2026-04-28 08:51 | 34.24036 | 131.31632 | 20553 ft | 379 kts | 259° |
| 2026-04-28 08:52 | 34.23524 | 131.28512 | 19927 ft | 376 kts | 259° |
| 2026-04-28 08:52 | 34.23016 | 131.25426 | 19339 ft | 373 kts | 259° |
| 2026-04-28 08:52 | 34.22509 | 131.22362 | 18779 ft | 371 kts | 259° |
| 2026-04-28 08:52 | 34.22005 | 131.19310 | 18272 ft | 369 kts | 259° |
| 2026-04-28 08:53 | 34.21506 | 131.16265 | 17997 ft | 369 kts | 259° |
| 2026-04-28 08:53 | 34.21010 | 131.13219 | 17971 ft | 369 kts | 259° |
| 2026-04-28 08:53 | 34.20509 | 131.10188 | 17975 ft | 367 kts | 259° |
| 2026-04-28 08:53 | 34.20006 | 131.07170 | 17976 ft | 366 kts | 259° |
| 2026-04-28 08:54 | 34.19499 | 131.04156 | 17967 ft | 366 kts | 259° |
| 2026-04-28 08:54 | 34.18763 | 131.01271 | 17843 ft | 362 kts | 248° |
| 2026-04-28 08:54 | 34.17434 | 130.98713 | 17066 ft | 360 kts | 235° |
| 2026-04-28 08:54 | 34.15777 | 130.96405 | 15903 ft | 366 kts | 232° |
| 2026-04-28 08:55 | 34.14093 | 130.94142 | 15312 ft | 356 kts | 231° |
| 2026-04-28 08:55 | 34.12489 | 130.91970 | 14930 ft | 334 kts | 232° |
| 2026-04-28 08:55 | 34.11006 | 130.89960 | 14637 ft | 307 kts | 232° |
| 2026-04-28 08:55 | 34.09644 | 130.88125 | 14388 ft | 282 kts | 232° |
| 2026-04-28 08:56 | 34.08360 | 130.86397 | 14098 ft | 272 kts | 232° |
| 2026-04-28 08:56 | 34.07110 | 130.84706 | 13777 ft | 270 kts | 232° |
| 2026-04-28 08:56 | 34.05829 | 130.82954 | 13476 ft | 294 kts | 232° |
| 2026-04-28 08:56 | 34.04396 | 130.80977 | 13119 ft | 330 kts | 232° |
| 2026-04-28 08:57 | 34.02836 | 130.78817 | 12776 ft | 350 kts | 232° |
| 2026-04-28 08:57 | 34.01255 | 130.76632 | 12439 ft | 335 kts | 232° |
| 2026-04-28 08:57 | 33.99785 | 130.74616 | 12100 ft | 306 kts | 232° |
| 2026-04-28 08:57 | 33.98441 | 130.72792 | 11770 ft | 284 kts | 232° |
| 2026-04-28 08:58 | 33.97574 | 130.71625 | 11553 ft | 272 kts | 232° |
| 2026-04-28 08:58 | 33.95923 | 130.69409 | 11124 ft | 267 kts | 232° |
| 2026-04-28 08:58 | 33.94680 | 130.67744 | 10807 ft | 267 kts | 232° |
| 2026-04-28 08:58 | 33.93838 | 130.66617 | 10597 ft | 267 kts | 232° |
| 2026-04-28 08:59 | 33.92194 | 130.64407 | 10187 ft | 267 kts | 233° |
| 2026-04-28 08:59 | 33.91449 | 130.63236 | 9987 ft | 265 kts | 239° |
| 2026-04-28 08:59 | 33.90463 | 130.61366 | 9668 ft | 263 kts | 242° |
| 2026-04-28 08:59 | 33.89514 | 130.59482 | 9286 ft | 262 kts | 242° |
| 2026-04-28 09:00 | 33.88578 | 130.57607 | 8910 ft | 261 kts | 242° |
| 2026-04-28 09:00 | 33.87652 | 130.55741 | 8508 ft | 258 kts | 242° |
| 2026-04-28 09:00 | 33.86731 | 130.53886 | 8229 ft | 258 kts | 242° |
| 2026-04-28 09:00 | 33.85814 | 130.52040 | 8006 ft | 258 kts | 242° |
| 2026-04-28 09:01 | 33.84899 | 130.50189 | 7693 ft | 257 kts | 242° |
| 2026-04-28 09:01 | 33.83698 | 130.47743 | 7230 ft | 256 kts | 242° |
| 2026-04-28 09:01 | 33.83089 | 130.46498 | 6987 ft | 255 kts | 242° |
| 2026-04-28 09:01 | 33.82191 | 130.44668 | 6644 ft | 254 kts | 242° |
| 2026-04-28 09:02 | 33.81290 | 130.42837 | 6292 ft | 253 kts | 242° |
| 2026-04-28 09:02 | 33.80410 | 130.41040 | 5950 ft | 253 kts | 242° |
| 2026-04-28 09:02 | 33.79520 | 130.39217 | 5620 ft | 253 kts | 242° |
| 2026-04-28 09:02 | 33.78632 | 130.37397 | 5365 ft | 252 kts | 242° |
| 2026-04-28 09:03 | 33.77746 | 130.35576 | 5117 ft | 252 kts | 242° |
| 2026-04-28 09:03 | 33.76862 | 130.33761 | 4862 ft | 251 kts | 242° |
| 2026-04-28 09:03 | 33.75981 | 130.31941 | 4605 ft | 251 kts | 242° |
| 2026-04-28 09:03 | 33.75109 | 130.30126 | 4364 ft | 250 kts | 242° |
| 2026-04-28 09:04 | 33.74115 | 130.28413 | 4111 ft | 253 kts | 226° |
| 2026-04-28 09:04 | 33.72591 | 130.27366 | 3796 ft | 257 kts | 198° |
| 2026-04-28 09:04 | 33.70812 | 130.27146 | 3494 ft | 259 kts | 184° |
| 2026-04-28 09:04 | 33.69012 | 130.27175 | 3193 ft | 258 kts | 182° |
| 2026-04-28 09:05 | 33.67221 | 130.27228 | 2891 ft | 257 kts | 182° |
| 2026-04-28 09:05 | 33.65460 | 130.27562 | 2589 ft | 261 kts | 161° |
| 2026-04-28 09:05 | 33.63961 | 130.28788 | 2297 ft | 263 kts | 137° |
| 2026-04-28 09:05 | 33.62739 | 130.30427 | 2044 ft | 264 kts | 132° |
| 2026-04-28 09:06 | 33.61555 | 130.32116 | 1990 ft | 264 kts | 133° |
| 2026-04-28 09:06 | 33.60185 | 130.33567 | 1991 ft | 262 kts | 147° |
| 2026-04-28 09:06 | 33.58736 | 130.34846 | 1994 ft | 262 kts | 147° |
| 2026-04-28 09:06 | 33.57265 | 130.36039 | 1967 ft | 243 kts | 147° |
| 2026-04-28 09:07 | 33.56044 | 130.37301 | 1975 ft | 225 kts | 139° |
| 2026-04-28 09:07 | 33.54947 | 130.38598 | 1968 ft | 211 kts | 137° |
| 2026-04-28 09:07 | 33.53995 | 130.39746 | 1991 ft | 177 kts | 138° |
| 2026-04-28 09:07 | 33.53198 | 130.40726 | 1956 ft | 154 kts | 138° |
| 2026-04-28 09:08 | 33.52556 | 130.41668 | 1819 ft | 141 kts | 125° |
| 2026-04-28 09:08 | 33.52220 | 130.42756 | 1581 ft | 136 kts | 99° |
| 2026-04-28 09:08 | 33.52357 | 130.43860 | 1499 ft | 137 kts | 70° |
| 2026-04-28 09:08 | 33.52714 | 130.44938 | 1316 ft | 139 kts | 65° |
| 2026-04-28 09:09 | 33.53116 | 130.45960 | 1117 ft | 135 kts | 62° |
| 2026-04-28 09:09 | 33.53597 | 130.46918 | 1034 ft | 134 kts | 49° |
| 2026-04-28 09:09 | 33.54355 | 130.47539 | 1028 ft | 133 kts | 8° |
| 2026-04-28 09:09 | 33.55236 | 130.47387 | 859 ft | 134 kts | 329° |
| 2026-04-28 09:10 | 33.56059 | 130.46796 | 558 ft | 137 kts | 328° |
| 2026-04-28 09:10 | 33.56872 | 130.46238 | 274 ft | 132 kts | 328° |
| 2026-04-28 09:10 | 33.57656 | 130.45707 | 87 ft | 126 kts | 328° |
| 2026-04-28 09:10 | 33.58367 | 130.45218 | 44 ft | 102 kts | 330° |
| 2026-04-28 09:11 | 33.58826 | 130.44908 | 41 ft | 66 kts | 331° |
| 2026-04-28 09:11 | 33.59170 | 130.44677 | 33 ft | 51 kts | 330° |
| 2026-04-28 09:11 | 33.59404 | 130.44524 | 32 ft | 33 kts | 342° |
| 2026-04-28 09:11 | 33.59564 | 130.44490 | 31 ft | 12 kts | 356° |
| 2026-04-28 09:12 | 33.59643 | 130.44495 | 33 ft | 12 kts | 18° |
| 2026-04-28 09:12 | 33.59686 | 130.44555 | 33 ft | 8 kts | 62° |
| 2026-04-28 09:12 | 33.59723 | 130.44608 | 32 ft | 9 kts | 23° |
| 2026-04-28 09:12 | 33.59761 | 130.44645 | 32 ft | 6 kts | 53° |
| 2026-04-28 09:13 | 33.59772 | 130.44670 | 31 ft | 3 kts | 60° |
| 2026-04-28 09:13 | 33.59779 | 130.44683 | 31 ft | 1 kts | 60° |
| 2026-04-28 09:13 | 33.59780 | 130.44686 | 31 ft | 0 kts | 60° |